createdAt,value
2023-05-14T00:01:04.671Z,15.84
2023-05-14T00:03:31.675Z,15.74
2023-05-14T00:05:58.453Z,15.61
2023-05-14T00:08:25.029Z,15.44
2023-05-14T00:10:52.056Z,15.33
2023-05-14T00:13:20.000Z,15.28
2023-05-14T00:15:46.601Z,15.27
2023-05-14T00:18:13.250Z,15.21
2023-05-14T00:20:40.521Z,15.30
2023-05-14T00:23:07.162Z,15.29
2023-05-14T00:25:33.940Z,15.28
2023-05-14T00:28:00.566Z,15.24
2023-05-14T00:30:28.733Z,15.26
2023-05-14T00:32:55.409Z,15.42
2023-05-14T00:35:22.118Z,15.44
2023-05-14T00:37:48.875Z,15.51
2023-05-14T00:40:15.624Z,15.45
2023-05-14T00:42:42.441Z,15.42
2023-05-14T00:45:09.805Z,15.30
2023-05-14T00:47:38.065Z,15.28
2023-05-14T00:50:05.906Z,15.33
2023-05-14T00:52:33.185Z,15.37
2023-05-14T00:55:03.149Z,15.39
2023-05-14T00:57:29.833Z,15.43
2023-05-14T00:59:56.541Z,15.40
2023-05-14T01:02:23.273Z,15.34
2023-05-14T01:04:52.075Z,15.31
2023-05-14T01:07:29.477Z,15.36
2023-05-14T01:10:00.850Z,15.63
2023-05-14T01:12:33.982Z,15.53
2023-05-14T01:15:04.850Z,15.38
2023-05-14T01:17:33.421Z,15.43
2023-05-14T01:20:02.229Z,15.48
2023-05-14T01:22:30.114Z,15.36
2023-05-14T01:24:56.673Z,15.15
2023-05-14T01:27:31.276Z,15.46
2023-05-14T01:30:07.747Z,15.44
2023-05-14T01:32:35.365Z,15.48
2023-05-14T01:35:02.577Z,15.53
2023-05-14T01:37:32.072Z,15.52
2023-05-14T01:39:59.957Z,15.49
2023-05-14T01:42:28.197Z,15.55
2023-05-14T01:44:55.026Z,15.50
2023-05-14T01:47:21.575Z,15.49
2023-05-14T01:49:48.300Z,15.58
2023-05-14T01:52:14.876Z,15.51
2023-05-14T01:54:42.837Z,15.55
2023-05-14T01:57:09.408Z,15.41
2023-05-14T01:59:36.342Z,15.44
2023-05-14T02:02:02.954Z,15.35
2023-05-14T02:04:29.563Z,15.19
2023-05-14T02:06:56.372Z,15.31
2023-05-14T02:09:22.945Z,15.37
2023-05-14T02:11:51.176Z,15.29
2023-05-14T02:14:17.704Z,15.11
2023-05-14T02:16:44.252Z,15.02
2023-05-14T02:19:10.973Z,14.98
2023-05-14T02:21:37.533Z,14.93
2023-05-14T02:24:04.137Z,14.92
2023-05-14T02:26:30.744Z,14.74
2023-05-14T02:28:58.666Z,14.64
2023-05-14T02:31:25.637Z,14.64
2023-05-14T02:33:52.296Z,14.61
2023-05-14T02:36:19.018Z,14.49
2023-05-14T02:38:45.615Z,14.52
2023-05-14T02:41:12.170Z,14.39
2023-05-14T02:43:38.728Z,14.33
2023-05-14T02:46:06.648Z,14.26
2023-05-14T02:48:33.283Z,14.18
2023-05-14T02:51:00.147Z,14.02
2023-05-14T02:53:26.646Z,14.07
2023-05-14T02:55:53.465Z,13.93
2023-05-14T02:58:20.029Z,13.97
2023-05-14T03:00:52.832Z,13.97
2023-05-14T03:03:21.429Z,13.86
2023-05-14T03:05:48.745Z,13.83
2023-05-14T03:08:15.510Z,13.68
2023-05-14T03:10:42.107Z,13.56
2023-05-14T03:13:08.771Z,13.63
2023-05-14T03:15:35.571Z,13.51
2023-05-14T03:18:02.293Z,13.45
2023-05-14T03:20:30.315Z,13.33
2023-05-14T03:22:56.907Z,13.30
2023-05-14T03:25:23.717Z,13.26
2023-05-14T03:27:50.290Z,13.18
2023-05-14T03:30:17.019Z,13.28
2023-05-14T03:32:43.863Z,13.17
2023-05-14T03:35:10.761Z,13.10
2023-05-14T03:37:38.701Z,13.05
2023-05-14T03:40:06.884Z,13.01
2023-05-14T03:42:33.498Z,13.05
2023-05-14T03:45:00.027Z,13.09
2023-05-14T03:47:26.739Z,13.10
2023-05-14T03:49:53.324Z,13.07
2023-05-14T03:52:19.925Z,13.17
2023-05-14T03:54:47.898Z,13.21
2023-05-14T03:57:14.632Z,13.22
2023-05-14T03:59:41.199Z,13.27
2023-05-14T04:02:07.835Z,13.24
2023-05-14T04:04:34.434Z,13.16
2023-05-14T04:07:01.489Z,13.01
2023-05-14T04:09:28.084Z,13.12
2023-05-14T04:11:56.223Z,13.38
2023-05-14T04:14:22.858Z,13.54
2023-05-14T04:16:49.432Z,13.81
2023-05-14T04:19:16.358Z,13.91
2023-05-14T04:21:43.174Z,14.03
2023-05-14T04:24:09.825Z,14.15
2023-05-14T04:26:36.392Z,14.32
2023-05-14T04:29:04.509Z,14.45
2023-05-14T04:31:31.060Z,14.78
2023-05-14T04:33:57.623Z,15.04
2023-05-14T04:36:24.236Z,14.82
2023-05-14T04:38:50.823Z,15.09
2023-05-14T04:41:17.390Z,15.20
2023-05-14T04:43:43.989Z,15.55
2023-05-14T04:46:11.955Z,16.56
2023-05-14T04:48:38.838Z,17.89
2023-05-14T04:51:07.091Z,18.95
2023-05-14T04:53:33.957Z,19.43
2023-05-14T04:56:00.517Z,20.71
2023-05-14T04:58:27.294Z,22.89
2023-05-14T05:00:53.904Z,24.80
2023-05-14T05:03:22.020Z,25.75
2023-05-14T05:05:48.682Z,26.14
2023-05-14T05:08:15.265Z,27.02
2023-05-14T05:10:41.820Z,28.11
2023-05-14T05:13:08.390Z,28.02
2023-05-14T05:15:35.002Z,25.27
2023-05-14T05:18:01.773Z,24.94
2023-05-14T05:20:29.974Z,25.58
2023-05-14T05:22:56.763Z,25.90
2023-05-14T05:25:23.387Z,23.83
2023-05-14T05:27:49.940Z,22.03
2023-05-14T05:30:16.837Z,20.45
2023-05-14T05:32:43.661Z,19.52
2023-05-14T05:35:10.274Z,19.00
2023-05-14T05:37:38.689Z,18.82
2023-05-14T05:40:06.625Z,18.87
2023-05-14T05:42:33.403Z,19.11
2023-05-14T05:44:59.982Z,19.79
2023-05-14T05:47:26.979Z,20.79
2023-05-14T05:49:53.619Z,21.82
2023-05-14T05:52:20.258Z,22.73
2023-05-14T05:54:48.173Z,23.49
2023-05-14T05:57:15.084Z,23.67
2023-05-14T05:59:41.724Z,23.84
2023-05-14T06:02:08.735Z,24.23
2023-05-14T06:04:35.361Z,24.56
2023-05-14T06:07:01.957Z,24.73
2023-05-14T06:09:28.729Z,24.98
2023-05-14T06:11:56.639Z,24.63
2023-05-14T06:14:23.320Z,24.99
2023-05-14T06:16:49.964Z,25.29
2023-05-14T06:19:16.562Z,25.50
2023-05-14T06:21:43.260Z,25.40
2023-05-14T06:24:10.332Z,25.37
2023-05-14T06:26:36.887Z,25.24
2023-05-14T06:29:04.979Z,25.34
2023-05-14T06:31:31.540Z,25.58
2023-05-14T06:33:58.276Z,25.15
2023-05-14T06:36:24.872Z,24.74
2023-05-14T06:38:51.527Z,24.58
2023-05-14T06:41:18.088Z,25.01
2023-05-14T06:43:44.700Z,24.98
2023-05-14T06:46:12.633Z,25.08
2023-05-14T06:48:39.259Z,25.38
2023-05-14T06:51:05.989Z,25.63
2023-05-14T06:53:32.601Z,25.94
2023-05-14T06:55:59.359Z,26.14
2023-05-14T06:58:25.962Z,26.56
2023-05-14T07:00:52.541Z,26.49
2023-05-14T07:03:20.452Z,26.45
2023-05-14T07:05:47.030Z,26.42
2023-05-14T07:08:13.838Z,26.74
2023-05-14T07:10:40.393Z,26.85
2023-05-14T07:13:07.887Z,26.90
2023-05-14T07:15:34.793Z,26.74
2023-05-14T07:18:01.583Z,26.64
2023-05-14T07:20:29.781Z,27.00
2023-05-14T07:22:56.362Z,27.13
2023-05-14T07:25:23.003Z,27.31
2023-05-14T07:27:49.598Z,27.19
2023-05-14T07:30:16.199Z,27.36
2023-05-14T07:32:43.411Z,27.54
2023-05-14T07:35:10.294Z,27.82
2023-05-14T07:37:38.503Z,27.84
2023-05-14T07:40:06.226Z,28.06
2023-05-14T07:42:36.664Z,27.73
2023-05-14T07:45:04.568Z,27.76
2023-05-14T07:47:31.734Z,27.85
2023-05-14T07:49:59.047Z,28.04
2023-05-14T07:52:25.617Z,27.91
2023-05-14T07:54:53.691Z,28.05
2023-05-14T07:57:20.297Z,28.20
2023-05-14T07:59:47.869Z,28.35
2023-05-14T08:02:14.895Z,28.40
2023-05-14T08:04:41.731Z,28.41
2023-05-14T08:07:08.807Z,28.36
2023-05-14T08:09:35.745Z,28.30
2023-05-14T08:12:04.385Z,28.24
2023-05-14T08:14:31.105Z,27.78
2023-05-14T08:16:57.824Z,28.05
2023-05-14T08:19:24.451Z,28.32
2023-05-14T08:21:51.176Z,28.29
2023-05-14T08:24:19.004Z,28.06
2023-05-14T08:26:45.585Z,28.23
2023-05-14T08:29:16.304Z,28.36
2023-05-14T08:31:43.714Z,28.24
2023-05-14T08:34:10.364Z,28.56
2023-05-14T08:36:37.840Z,28.30
2023-05-14T08:39:04.393Z,28.65
2023-05-14T08:41:31.677Z,28.66
2023-05-14T08:44:06.734Z,27.87
2023-05-14T08:46:36.991Z,27.98
2023-05-14T08:49:10.793Z,27.97
2023-05-14T08:51:38.183Z,28.06
2023-05-14T08:54:05.801Z,27.82
2023-05-14T08:56:33.316Z,27.75
2023-05-14T08:58:59.877Z,28.07
2023-05-14T09:01:27.390Z,27.89
2023-05-14T09:03:56.496Z,28.14
2023-05-14T09:06:25.461Z,27.91
2023-05-14T09:08:53.336Z,27.94
2023-05-14T09:11:19.931Z,27.94
2023-05-14T09:13:46.496Z,28.13
2023-05-14T09:16:13.548Z,28.13
2023-05-14T09:18:43.586Z,27.98
2023-05-14T09:21:13.650Z,27.16
2023-05-14T09:23:42.984Z,26.34
2023-05-14T09:26:09.650Z,26.31
2023-05-14T09:28:40.191Z,27.04
2023-05-14T09:31:06.870Z,27.10
2023-05-14T09:33:33.507Z,26.24
2023-05-14T09:36:00.708Z,26.58
2023-05-14T09:38:32.792Z,25.91
2023-05-14T09:41:00.284Z,25.25
2023-05-14T09:43:26.863Z,24.97
2023-05-14T09:45:54.167Z,24.81
2023-05-14T09:48:20.850Z,25.20
2023-05-14T09:50:47.496Z,24.83
2023-05-14T09:53:14.240Z,25.16
2023-05-14T09:55:42.267Z,24.84
2023-05-14T09:58:09.019Z,25.32
2023-05-14T10:00:35.701Z,24.41
2023-05-14T10:03:05.669Z,24.20
2023-05-14T10:05:35.015Z,24.35
2023-05-14T10:08:04.620Z,24.17
2023-05-14T10:10:32.505Z,24.08
2023-05-14T10:13:03.950Z,24.42
2023-05-14T10:15:36.905Z,24.67
2023-05-14T10:18:09.585Z,23.89
2023-05-14T10:20:37.713Z,24.34
2023-05-14T10:23:04.773Z,23.71
2023-05-14T10:25:31.965Z,23.88
2023-05-14T10:28:00.267Z,24.20
2023-05-14T10:30:27.211Z,24.31
2023-05-14T10:33:11.567Z,24.14
2023-05-14T10:36:00.899Z,24.53
2023-05-14T10:38:28.642Z,24.20
2023-05-14T10:40:57.465Z,24.33
2023-05-14T10:43:27.656Z,23.97
2023-05-14T10:45:54.393Z,24.60
2023-05-14T10:48:21.011Z,24.85
2023-05-14T10:50:48.264Z,25.02
2023-05-14T10:53:15.272Z,24.53
2023-05-14T10:55:43.261Z,24.80
2023-05-14T10:58:10.673Z,24.27
2023-05-14T11:00:39.551Z,24.24
2023-05-14T11:03:07.051Z,24.49
2023-05-14T11:05:34.343Z,24.34
2023-05-14T11:08:04.366Z,24.17
2023-05-14T11:10:32.430Z,25.60
2023-05-14T11:12:59.449Z,25.47
2023-05-14T11:15:28.832Z,25.33
2023-05-14T11:17:58.109Z,26.44
2023-05-14T11:20:25.050Z,25.28
2023-05-14T11:22:52.034Z,25.50
2023-05-14T11:25:18.582Z,25.84
2023-05-14T11:27:46.228Z,24.72
2023-05-14T11:30:14.804Z,24.48
2023-05-14T11:32:43.467Z,24.63
2023-05-14T11:35:11.927Z,23.75
2023-05-14T11:37:38.922Z,23.65
2023-05-14T11:40:08.981Z,23.52
2023-05-14T11:42:36.930Z,23.58
2023-05-14T11:45:04.182Z,24.18
2023-05-14T11:47:30.974Z,24.23
2023-05-14T11:49:58.817Z,24.40
2023-05-14T11:52:26.800Z,25.00
2023-05-14T11:54:53.393Z,25.14
2023-05-14T11:57:20.946Z,24.98
2023-05-14T11:59:48.515Z,24.45
2023-05-14T12:02:17.394Z,24.31
2023-05-14T12:04:44.882Z,24.33
2023-05-14T12:07:12.832Z,24.47
2023-05-14T12:09:45.089Z,24.44
2023-05-14T12:12:12.888Z,24.47
2023-05-14T12:14:42.501Z,24.60
2023-05-14T12:17:13.930Z,24.84
2023-05-14T12:19:41.600Z,25.11
2023-05-14T12:22:08.420Z,24.73
2023-05-14T12:24:35.232Z,24.88
2023-05-14T12:27:03.640Z,24.97
2023-05-14T12:29:30.398Z,25.17
2023-05-14T12:31:57.956Z,24.14
2023-05-14T12:34:24.570Z,24.69
2023-05-14T12:36:51.185Z,24.61
2023-05-14T12:39:17.872Z,24.05
2023-05-14T12:41:44.654Z,24.00
2023-05-14T12:44:12.776Z,23.77
2023-05-14T12:46:39.497Z,24.08
2023-05-14T12:49:06.045Z,24.13
2023-05-14T12:51:32.705Z,24.04
2023-05-14T12:53:59.288Z,23.94
2023-05-14T12:56:26.015Z,23.98
2023-05-14T12:58:52.841Z,24.47
2023-05-14T13:01:20.937Z,23.74
2023-05-14T13:03:47.644Z,24.32
2023-05-14T13:06:14.306Z,24.30
2023-05-14T13:08:42.612Z,23.86
2023-05-14T13:11:09.322Z,24.47
2023-05-14T13:13:35.925Z,24.85
2023-05-14T13:16:03.387Z,24.33
2023-05-14T13:18:31.759Z,24.53
2023-05-14T13:20:58.434Z,24.82
2023-05-14T13:23:25.007Z,24.76
2023-05-14T13:25:51.941Z,24.90
2023-05-14T13:28:18.504Z,25.16
2023-05-14T13:31:03.987Z,24.77
2023-05-14T13:33:32.962Z,24.55
2023-05-14T13:36:00.055Z,24.67
2023-05-14T13:38:27.103Z,24.36
2023-05-14T13:40:54.151Z,25.10
2023-05-14T13:43:20.908Z,25.26
2023-05-14T13:45:47.470Z,25.37
2023-05-14T13:48:14.086Z,25.23
2023-05-14T13:50:42.096Z,24.90
2023-05-14T13:53:08.629Z,25.02
2023-05-14T13:55:35.654Z,24.78
2023-05-14T13:58:02.631Z,24.07
2023-05-14T14:00:29.311Z,24.17
2023-05-14T14:02:55.971Z,23.88
2023-05-14T14:05:23.323Z,24.50
2023-05-14T14:07:54.770Z,25.23
2023-05-14T14:10:28.158Z,25.36
2023-05-14T14:12:57.745Z,25.34
2023-05-14T14:15:24.531Z,25.52
2023-05-14T14:17:51.368Z,26.17
2023-05-14T14:20:18.159Z,25.79
2023-05-14T14:22:44.718Z,25.40
2023-05-14T14:25:12.702Z,24.71
2023-05-14T14:27:39.475Z,24.98
2023-05-14T14:30:08.105Z,24.53
2023-05-14T14:32:34.884Z,24.16
2023-05-14T14:35:01.566Z,24.29
2023-05-14T14:37:28.271Z,24.39
2023-05-14T14:39:54.866Z,23.86
2023-05-14T14:42:23.403Z,24.29
2023-05-14T14:44:50.556Z,24.07
2023-05-14T14:47:17.190Z,24.21
2023-05-14T14:49:43.762Z,24.80
2023-05-14T14:52:10.541Z,24.76
2023-05-14T14:54:37.600Z,24.54
2023-05-14T14:57:05.081Z,24.50
2023-05-14T14:59:35.008Z,23.71
2023-05-14T15:02:01.969Z,23.37
2023-05-14T15:04:28.526Z,23.26
2023-05-14T15:06:55.103Z,23.22
2023-05-14T15:09:21.681Z,23.76
2023-05-14T15:11:48.290Z,23.38
2023-05-14T15:14:14.852Z,23.22
2023-05-14T15:16:42.951Z,23.30
2023-05-14T15:19:09.553Z,23.24
2023-05-14T15:21:36.219Z,23.18
2023-05-14T15:24:03.356Z,23.41
2023-05-14T15:26:30.017Z,23.30
2023-05-14T15:28:56.565Z,23.59
2023-05-14T15:31:23.374Z,23.82
2023-05-14T15:33:51.490Z,23.97
2023-05-14T15:36:18.071Z,23.94
2023-05-14T15:38:44.963Z,24.34
2023-05-14T15:41:11.562Z,24.23
2023-05-14T15:44:07.170Z,24.21
2023-05-14T15:46:33.867Z,24.42
2023-05-14T15:49:01.780Z,24.60
2023-05-14T15:51:28.861Z,24.02
2023-05-14T15:53:55.539Z,24.37
2023-05-14T15:56:22.955Z,24.18
2023-05-14T15:58:49.972Z,23.69
2023-05-14T16:01:16.785Z,23.61
2023-05-14T16:03:43.672Z,23.31
2023-05-14T16:06:11.826Z,23.50
2023-05-14T16:08:38.567Z,23.84
2023-05-14T16:11:05.906Z,23.78
2023-05-14T16:13:32.543Z,24.02
2023-05-14T16:15:59.826Z,24.00
2023-05-14T16:18:26.867Z,24.24
2023-05-14T16:20:53.665Z,23.92
2023-05-14T16:23:23.919Z,24.11
2023-05-14T16:25:50.638Z,23.85
2023-05-14T16:28:17.409Z,23.92
2023-05-14T16:30:44.024Z,24.29
2023-05-14T16:33:10.810Z,23.79
2023-05-14T16:35:37.565Z,23.90
2023-05-14T16:38:04.204Z,23.97
2023-05-14T16:40:32.238Z,24.08
2023-05-14T16:42:58.842Z,24.07
2023-05-14T16:45:25.912Z,24.26
2023-05-14T16:47:52.860Z,23.86
2023-05-14T16:50:19.748Z,23.76
2023-05-14T16:52:46.525Z,23.61
2023-05-14T16:55:13.322Z,23.54
2023-05-14T16:57:41.366Z,23.67
2023-05-14T17:00:09.523Z,23.89
2023-05-14T17:02:36.265Z,23.83
2023-05-14T17:05:03.231Z,23.86
2023-05-14T17:07:30.099Z,23.48
2023-05-14T17:09:57.122Z,23.35
2023-05-14T17:12:23.842Z,23.25
2023-05-14T17:14:51.893Z,23.25
2023-05-14T17:17:18.842Z,23.55
2023-05-14T17:19:45.495Z,23.11
2023-05-14T17:22:12.314Z,22.89
2023-05-14T17:24:38.961Z,23.10
2023-05-14T17:27:06.004Z,23.04
2023-05-14T17:29:32.683Z,23.08
2023-05-14T17:32:00.733Z,22.95
2023-05-14T17:34:27.619Z,22.81
2023-05-14T17:36:54.189Z,22.85
2023-05-14T17:39:20.846Z,22.88
2023-05-14T17:41:47.429Z,22.90
2023-05-14T17:44:14.028Z,22.40
2023-05-14T17:46:40.703Z,22.28
2023-05-14T17:49:08.667Z,22.31
2023-05-14T17:51:35.250Z,22.42
2023-05-14T17:54:02.314Z,22.44
2023-05-14T17:56:29.606Z,22.27
2023-05-14T17:58:56.141Z,22.01
2023-05-14T18:01:22.782Z,21.27
2023-05-14T18:03:49.706Z,21.29
2023-05-14T18:06:17.777Z,21.01
2023-05-14T18:08:44.361Z,20.57
2023-05-14T18:11:10.950Z,20.02
2023-05-14T18:13:37.625Z,19.84
2023-05-14T18:16:05.154Z,19.87
2023-05-14T18:18:32.019Z,19.83
2023-05-14T18:20:58.589Z,19.39
2023-05-14T18:23:26.840Z,19.20
2023-05-14T18:25:53.997Z,19.23
2023-05-14T18:28:20.650Z,18.96
2023-05-14T18:30:47.426Z,18.38
2023-05-14T18:33:14.118Z,17.74
2023-05-14T18:35:41.646Z,17.18
2023-05-14T18:38:08.219Z,17.77
2023-05-14T18:40:36.179Z,18.31
2023-05-14T18:43:02.770Z,18.81
2023-05-14T18:45:29.516Z,19.14
2023-05-14T18:47:56.366Z,19.27
2023-05-14T18:50:22.955Z,19.57
2023-05-14T18:52:49.564Z,19.72
2023-05-14T18:55:16.128Z,19.90
2023-05-14T18:57:45.127Z,19.97
2023-05-14T19:00:13.046Z,20.10
2023-05-14T19:02:39.684Z,20.13
2023-05-14T19:05:07.395Z,20.08
2023-05-14T19:07:33.992Z,20.09
2023-05-14T19:10:00.600Z,20.09
2023-05-14T19:12:27.174Z,20.17
2023-05-14T19:14:55.336Z,20.11
2023-05-14T19:17:21.963Z,20.12
2023-05-14T19:19:48.531Z,20.11
2023-05-14T19:22:15.031Z,20.18
2023-05-14T19:24:41.609Z,20.04
2023-05-14T19:27:08.682Z,19.99
2023-05-14T19:29:35.590Z,19.94
2023-05-14T19:32:03.786Z,19.85
2023-05-14T19:34:30.679Z,19.89
2023-05-14T19:36:57.289Z,19.92
2023-05-14T19:39:23.880Z,19.88
2023-05-14T19:41:50.459Z,19.59
2023-05-14T19:44:17.160Z,19.73
2023-05-14T19:46:43.754Z,19.76
2023-05-14T19:49:11.720Z,19.66
2023-05-14T19:51:38.338Z,19.88
2023-05-14T19:54:05.164Z,19.92
2023-05-14T19:56:31.749Z,19.97
2023-05-14T19:58:58.358Z,19.95
2023-05-14T20:01:25.033Z,19.94
2023-05-14T20:03:51.695Z,19.86
2023-05-14T20:06:19.806Z,19.98
2023-05-14T20:08:46.409Z,20.01
2023-05-14T20:11:13.068Z,20.06
2023-05-14T20:13:39.630Z,20.01
2023-05-14T20:16:06.455Z,20.03
2023-05-14T20:18:33.198Z,20.06
2023-05-14T20:20:59.856Z,20.07
2023-05-14T20:23:27.797Z,20.05
2023-05-14T20:25:54.363Z,20.06
2023-05-14T20:28:21.022Z,20.01
2023-05-14T20:30:47.708Z,19.99
2023-05-14T20:33:14.439Z,19.99
2023-05-14T20:35:41.105Z,19.96
2023-05-14T20:38:07.709Z,19.96
2023-05-14T20:40:35.644Z,20.00
2023-05-14T20:43:02.398Z,20.01
2023-05-14T20:45:29.001Z,20.03
2023-05-14T20:47:55.584Z,19.92
2023-05-14T20:50:22.831Z,19.84
2023-05-14T20:52:49.530Z,19.86
2023-05-14T20:55:16.331Z,19.82
2023-05-14T20:57:44.314Z,19.71
2023-05-14T21:00:12.114Z,19.64
2023-05-14T21:02:38.843Z,19.56
2023-05-14T21:05:06.589Z,19.56
2023-05-14T21:07:33.150Z,19.52
2023-05-14T21:09:59.757Z,19.53
2023-05-14T21:12:26.518Z,19.59
2023-05-14T21:14:54.407Z,19.58
2023-05-14T21:17:21.169Z,19.59
2023-05-14T21:19:47.588Z,19.52
2023-05-14T21:22:14.125Z,19.48
2023-05-14T21:24:41.020Z,19.28
2023-05-14T21:27:07.794Z,19.22
2023-05-14T21:29:34.343Z,19.12
2023-05-14T21:32:02.348Z,19.08
2023-05-14T21:34:29.860Z,19.02
2023-05-14T21:36:58.381Z,18.96
2023-05-14T21:39:25.186Z,18.96
2023-05-14T21:41:51.838Z,18.90
2023-05-14T21:44:18.402Z,18.88
2023-05-14T21:46:45.040Z,18.90
2023-05-14T21:49:12.976Z,18.83
2023-05-14T21:51:44.676Z,18.79
2023-05-14T21:54:11.175Z,18.68
2023-05-14T21:56:38.114Z,18.59
2023-05-14T21:59:04.911Z,18.51
2023-05-14T22:01:32.591Z,18.47
2023-05-14T22:04:00.471Z,18.34
2023-05-14T22:06:28.453Z,18.32
2023-05-14T22:08:55.050Z,18.29
2023-05-14T22:11:21.475Z,18.22
2023-05-14T22:13:48.046Z,18.22
2023-05-14T22:16:14.781Z,18.10
2023-05-14T22:18:41.382Z,18.01
2023-05-14T22:21:08.012Z,17.94
2023-05-14T22:23:36.049Z,17.87
2023-05-14T22:26:03.276Z,17.76
2023-05-14T22:28:29.872Z,17.74
2023-05-14T22:30:56.595Z,17.68
2023-05-14T22:33:23.280Z,17.63
2023-05-14T22:35:50.048Z,17.67
2023-05-14T22:38:16.621Z,17.68
2023-05-14T22:40:44.515Z,17.62
2023-05-14T22:43:11.216Z,17.55
2023-05-14T22:45:37.784Z,17.45
2023-05-14T22:48:04.619Z,17.38
2023-05-14T22:50:31.305Z,17.40
2023-05-14T22:52:57.899Z,17.33
2023-05-14T22:55:24.691Z,17.29
2023-05-14T22:57:52.671Z,17.24
2023-05-14T23:00:19.566Z,17.14
2023-05-14T23:02:46.143Z,17.03
2023-05-14T23:05:12.877Z,16.95
2023-05-14T23:07:39.577Z,16.92
2023-05-14T23:10:06.978Z,16.87
2023-05-14T23:12:33.626Z,16.92
2023-05-14T23:15:01.579Z,16.86
2023-05-14T23:17:28.217Z,16.78
2023-05-14T23:19:54.941Z,16.66
2023-05-14T23:22:21.539Z,16.68
2023-05-14T23:24:48.089Z,16.68
2023-05-14T23:27:14.763Z,16.71
2023-05-14T23:29:41.321Z,16.62
2023-05-14T23:32:09.580Z,16.62
2023-05-14T23:34:36.144Z,16.59
2023-05-14T23:37:02.698Z,16.41
2023-05-14T23:39:29.425Z,16.28
2023-05-14T23:41:55.994Z,16.28
2023-05-14T23:44:22.506Z,16.35
2023-05-14T23:46:49.159Z,16.30
2023-05-14T23:49:17.261Z,16.12
2023-05-14T23:51:44.033Z,16.11
2023-05-14T23:54:10.612Z,16.09
2023-05-14T23:56:37.239Z,16.03
2023-05-14T23:59:03.918Z,15.99
